Allenville, Missouri
Current Conditions -  °F | °C
As of 2:53 AM on Saturday 22 Nov 2014 (Local Time) from KCGI Reporting Station
Overcast Overcast  
Wind Chill: 42°   Ceiling: 7000
Heat Index: 48°   Visibility: 10mi
Dew Point: 41°   Wind: 14mph
Humidity: 77%   Direction: 180°S
Pressure: 30.23"   Gusts: NA
Location:  37.1651°N, 89.623°W
Report Text: KCGI 220853Z AUTO 18012KT 10SM OVC070 09/05 A3023 RMK AO2 SLP238 60000 T00890050 56016 TSNO
Loading
Personal Weather Stations






























Interactive Weather Map New forecast layout! Learn more

10-Day Weather Forecast

Advertisements
Track Severe Weather on mobile